sensor_id;sensor_type;location;lat;lon;timestamp;pressure;altitude;pressure_sealevel;temperature;humidity
42001;BME280;27689;48.390;10.856;2023-06-10T14:52:18;95748.25;;;27.07;42.62
42001;BME280;27689;48.390;10.856;2023-06-10T14:55:02;95747.81;;;26.88;42.75
42001;BME280;27689;48.390;10.856;2023-06-10T14:57:46;95750.16;;;27.16;43.34
42001;BME280;27689;48.390;10.856;2023-06-10T15:00:30;95746.75;;;27.31;42.90
42001;BME280;27689;48.390;10.856;2023-06-10T15:03:14;95740.66;;;27.46;42.85
42001;BME280;27689;48.390;10.856;2023-06-10T15:05:58;95749.81;;;27.45;44.96
42001;BME280;27689;48.390;10.856;2023-06-10T15:08:44;95748.34;;;27.22;44.78
42001;BME280;27689;48.390;10.856;2023-06-10T15:11:29;95756.25;;;26.96;45.28
42001;BME280;27689;48.390;10.856;2023-06-10T15:14:13;95751.63;;;26.60;45.16
42001;BME280;27689;48.390;10.856;2023-06-10T15:16:57;95751.91;;;26.31;43.86
42001;BME280;27689;48.390;10.856;2023-06-10T15:19:42;95761.28;;;26.29;45.47
42001;BME280;27689;48.390;10.856;2023-06-10T15:22:26;95748.63;;;26.03;44.49
42001;BME280;27689;48.390;10.856;2023-06-10T15:25:13;95750.50;;;26.02;46.36
42001;BME280;27689;48.390;10.856;2023-06-10T15:27:57;95756.34;;;25.94;46.53
42001;BME280;27689;48.390;10.856;2023-06-10T15:30:41;95751.53;;;25.96;47.92
42001;BME280;27689;48.390;10.856;2023-06-10T15:33:25;95750.91;;;25.89;48.54
42001;BME280;27689;48.390;10.856;2023-06-10T15:36:09;95755.59;;;25.77;46.62
42001;BME280;27689;48.390;10.856;2023-06-10T15:38:54;95752.16;;;25.59;45.90
42001;BME280;27689;48.390;10.856;2023-06-10T15:45:21;95719.69;;;25.39;47.08
42001;BME280;27689;48.390;10.856;2023-06-10T15:52:09;95734.63;;;25.52;46.33
42001;BME280;27689;48.390;10.856;2023-06-10T15:55:38;95734.31;;;25.48;45.73
42001;BME280;27689;48.390;10.856;2023-06-10T15:58:40;95711.78;;;25.27;46.49
42001;BME280;27689;48.390;10.856;2023-06-10T16:04:46;95706.59;;;25.21;47.57
42001;BME280;27689;48.390;10.856;2023-06-10T16:19:04;95716.69;;;25.14;50.47
42001;BME280;27689;48.390;10.856;2023-06-10T16:21:59;95723.84;;;25.08;51.19
42001;BME280;27689;48.390;10.856;2023-06-10T16:24:44;95710.38;;;25.03;52.02
42001;BME280;27689;48.390;10.856;2023-06-10T16:27:36;95710.72;;;25.07;51.76
42001;BME280;27689;48.390;10.856;2023-06-10T16:30:31;95730.78;;;25.26;50.82
42001;BME280;27689;48.390;10.856;2023-06-10T16:33:21;95713.59;;;25.22;50.48
42001;BME280;27689;48.390;10.856;2023-06-10T16:36:46;95731.44;;;25.33;50.89
42001;BME280;27689;48.390;10.856;2023-06-10T16:39:39;95717.81;;;25.18;51.63
42001;BME280;27689;48.390;10.856;2023-06-10T16:42:28;95724.53;;;24.99;52.14
42001;BME280;27689;48.390;10.856;2023-06-10T16:45:33;95730.53;;;25.06;52.43
42001;BME280;27689;48.390;10.856;2023-06-10T16:48:24;95739.38;;;25.06;51.79
42001;BME280;27689;48.390;10.856;2023-06-10T16:51:13;95729.06;;;24.98;50.87
42001;BME280;27689;48.390;10.856;2023-06-10T16:54:16;95745.13;;;25.15;51.78
42001;BME280;27689;48.390;10.856;2023-06-10T16:57:00;95743.50;;;25.14;51.02
42001;BME280;27689;48.390;10.856;2023-06-10T16:59:43;95757.22;;;25.17;50.50
42001;BME280;27689;48.390;10.856;2023-06-10T17:02:51;95765.84;;;25.19;50.29
42001;BME280;27689;48.390;10.856;2023-06-10T17:05:35;95733.22;;;24.89;50.07
42001;BME280;27689;48.390;10.856;2023-06-10T17:08:19;95775.09;;;25.12;50.23
42001;BME280;27689;48.390;10.856;2023-06-10T17:11:03;95777.63;;;25.18;48.82
42001;BME280;27689;48.390;10.856;2023-06-10T17:13:47;95785.50;;;25.08;48.26
42001;BME280;27689;48.390;10.856;2023-06-10T17:16:31;95785.50;;;25.08;49.15
42001;BME280;27689;48.390;10.856;2023-06-10T17:19:15;95791.53;;;25.15;50.30
42001;BME280;27689;48.390;10.856;2023-06-10T17:21:59;95795.34;;;25.19;50.02
42001;BME280;27689;48.390;10.856;2023-06-10T17:24:43;95793.06;;;25.11;50.58
42001;BME280;27689;48.390;10.856;2023-06-10T17:27:27;95792.34;;;24.99;51.39
42001;BME280;27689;48.390;10.856;2023-06-10T17:30:15;95784.94;;;24.89;51.90
42001;BME280;27689;48.390;10.856;2023-06-10T17:33:15;95784.84;;;24.84;52.19
42001;BME280;27689;48.390;10.856;2023-06-10T17:39:31;95779.06;;;24.42;52.50
42001;BME280;27689;48.390;10.856;2023-06-10T17:42:15;95775.72;;;24.35;53.28
42001;BME280;27689;48.390;10.856;2023-06-10T17:45:02;95778.47;;;24.23;52.25
42001;BME280;27689;48.390;10.856;2023-06-10T17:47:46;95794.13;;;24.03;52.33
42001;BME280;27689;48.390;10.856;2023-06-10T17:50:30;95785.06;;;23.92;52.50
42001;BME280;27689;48.390;10.856;2023-06-10T17:53:21;95787.50;;;23.94;52.68
42001;BME280;27689;48.390;10.856;2023-06-10T17:56:08;95802.69;;;23.88;53.71
42001;BME280;27689;48.390;10.856;2023-06-10T17:58:52;95811.25;;;23.90;54.03
42001;BME280;27689;48.390;10.856;2023-06-10T18:01:37;95805.66;;;23.92;55.40
42001;BME280;27689;48.390;10.856;2023-06-10T18:04:20;95812.31;;;23.89;56.28
42001;BME280;27689;48.390;10.856;2023-06-10T18:07:05;95817.06;;;23.99;56.59
42001;BME280;27689;48.390;10.856;2023-06-10T18:09:49;95810.56;;;23.95;56.51
42001;BME280;27689;48.390;10.856;2023-06-10T18:12:33;95810.00;;;23.81;56.56
42001;BME280;27689;48.390;10.856;2023-06-10T18:15:17;95820.84;;;23.75;56.89
42001;BME280;27689;48.390;10.856;2023-06-10T18:18:01;95821.56;;;23.70;57.13
42001;BME280;27689;48.390;10.856;2023-06-10T18:20:46;95821.81;;;23.57;57.21
42001;BME280;27689;48.390;10.856;2023-06-10T18:23:30;95823.91;;;23.55;58.07
42001;BME280;27689;48.390;10.856;2023-06-10T18:26:14;95821.94;;;23.27;58.89
42001;BME280;27689;48.390;10.856;2023-06-10T18:28:58;95829.59;;;23.24;59.60
42001;BME280;27689;48.390;10.856;2023-06-10T18:31:42;95832.28;;;23.12;59.92
42001;BME280;27689;48.390;10.856;2023-06-10T18:34:26;95839.13;;;23.08;60.35
42001;BME280;27689;48.390;10.856;2023-06-10T18:37:10;95842.50;;;23.03;60.53
42001;BME280;27689;48.390;10.856;2023-06-10T18:39:54;95845.50;;;22.95;61.06
42001;BME280;27689;48.390;10.856;2023-06-10T18:42:38;95849.91;;;22.90;61.20
42001;BME280;27689;48.390;10.856;2023-06-10T18:45:22;95851.75;;;22.77;61.32
42001;BME280;27689;48.390;10.856;2023-06-10T18:48:07;95843.34;;;22.74;61.79
42001;BME280;27689;48.390;10.856;2023-06-10T18:50:51;95853.69;;;22.70;61.99
42001;BME280;27689;48.390;10.856;2023-06-10T18:53:35;95848.53;;;22.57;62.68
42001;BME280;27689;48.390;10.856;2023-06-10T18:56:19;95856.66;;;22.50;62.50
42001;BME280;27689;48.390;10.856;2023-06-10T18:59:03;95861.03;;;22.45;62.85
42001;BME280;27689;48.390;10.856;2023-06-10T19:01:46;95867.16;;;22.34;63.42
42001;BME280;27689;48.390;10.856;2023-06-10T19:04:31;95865.38;;;22.28;63.43
42001;BME280;27689;48.390;10.856;2023-06-10T19:07:15;95873.25;;;22.23;63.82
42001;BME280;27689;48.390;10.856;2023-06-10T19:09:58;95866.13;;;22.16;64.40
42001;BME280;27689;48.390;10.856;2023-06-10T19:12:42;95871.09;;;22.13;64.82
42001;BME280;27689;48.390;10.856;2023-06-10T19:15:26;95876.31;;;22.08;64.87
42001;BME280;27689;48.390;10.856;2023-06-10T19:18:11;95880.69;;;22.02;65.66
42001;BME280;27689;48.390;10.856;2023-06-10T19:20:55;95877.00;;;21.97;65.93
42001;BME280;27689;48.390;10.856;2023-06-10T19:23:38;95886.75;;;21.91;65.97
42001;BME280;27689;48.390;10.856;2023-06-10T19:26:23;95882.50;;;21.83;66.42
42001;BME280;27689;48.390;10.856;2023-06-10T19:29:07;95872.75;;;21.77;66.35
42001;BME280;27689;48.390;10.856;2023-06-10T19:31:51;95883.03;;;21.74;66.80
42001;BME280;27689;48.390;10.856;2023-06-10T19:34:35;95885.53;;;21.69;67.15
42001;BME280;27689;48.390;10.856;2023-06-10T19:37:22;95882.75;;;21.64;66.97
42001;BME280;27689;48.390;10.856;2023-06-10T19:40:10;95881.34;;;21.61;67.72
42001;BME280;27689;48.390;10.856;2023-06-10T19:42:54;95880.56;;;21.54;68.21
42001;BME280;27689;48.390;10.856;2023-06-10T19:45:40;95891.31;;;21.48;68.56
42001;BME280;27689;48.390;10.856;2023-06-10T19:48:24;95888.09;;;21.39;69.17
42001;BME280;27689;48.390;10.856;2023-06-10T19:51:08;95895.56;;;21.30;69.16
42001;BME280;27689;48.390;10.856;2023-06-10T19:53:55;95892.59;;;21.20;70.18
42001;BME280;27689;48.390;10.856;2023-06-10T19:56:40;95895.44;;;21.19;70.01
42001;BME280;27689;48.390;10.856;2023-06-10T19:59:24;95899.97;;;21.18;70.19
42001;BME280;27689;48.390;10.856;2023-06-10T20:02:08;95902.06;;;21.09;69.84
42001;BME280;27689;48.390;10.856;2023-06-10T20:04:52;95903.28;;;21.13;69.95
42001;BME280;27689;48.390;10.856;2023-06-10T20:07:36;95910.44;;;21.13;70.49
42001;BME280;27689;48.390;10.856;2023-06-10T20:10:20;95911.09;;;21.08;70.01
42001;BME280;27689;48.390;10.856;2023-06-10T20:13:04;95925.06;;;21.04;70.00
42001;BME280;27689;48.390;10.856;2023-06-10T20:15:48;95922.66;;;20.96;70.67
42001;BME280;27689;48.390;10.856;2023-06-10T20:18:34;95928.66;;;20.91;70.90
42001;BME280;27689;48.390;10.856;2023-06-10T20:21:19;95938.59;;;20.77;70.82
42001;BME280;27689;48.390;10.856;2023-06-10T20:24:07;95937.16;;;20.75;71.33
42001;BME280;27689;48.390;10.856;2023-06-10T20:26:51;95942.91;;;20.72;71.33
42001;BME280;27689;48.390;10.856;2023-06-10T20:29:35;95947.06;;;20.61;71.41
42001;BME280;27689;48.390;10.856;2023-06-10T20:32:18;95953.22;;;20.62;72.51
42001;BME280;27689;48.390;10.856;2023-06-10T20:35:03;95951.59;;;20.54;71.92
42001;BME280;27689;48.390;10.856;2023-06-10T20:37:48;95946.09;;;20.49;72.59
42001;BME280;27689;48.390;10.856;2023-06-10T20:40:33;95954.69;;;20.51;72.56
42001;BME280;27689;48.390;10.856;2023-06-10T20:43:17;95959.84;;;20.46;72.58
42001;BME280;27689;48.390;10.856;2023-06-10T20:46:01;95954.53;;;20.39;72.30
42001;BME280;27689;48.390;10.856;2023-06-10T20:48:45;95959.06;;;20.32;73.25
42001;BME280;27689;48.390;10.856;2023-06-10T20:51:29;95959.47;;;20.29;73.18
42001;BME280;27689;48.390;10.856;2023-06-10T20:54:13;95957.03;;;20.28;74.26
42001;BME280;27689;48.390;10.856;2023-06-10T20:56:57;95970.13;;;20.23;74.39
42001;BME280;27689;48.390;10.856;2023-06-10T20:59:41;95961.97;;;20.18;74.39
42001;BME280;27689;48.390;10.856;2023-06-10T21:02:25;95975.09;;;20.13;74.93
42001;BME280;27689;48.390;10.856;2023-06-10T21:05:09;95972.03;;;20.09;74.64
42001;BME280;27689;48.390;10.856;2023-06-10T21:07:53;95973.91;;;19.95;75.66
42001;BME280;27689;48.390;10.856;2023-06-10T21:10:37;95965.31;;;19.93;75.69
42001;BME280;27689;48.390;10.856;2023-06-10T21:13:21;95969.41;;;19.89;76.27
42001;BME280;27689;48.390;10.856;2023-06-10T21:16:05;95963.91;;;19.84;76.74
42001;BME280;27689;48.390;10.856;2023-06-10T21:18:49;95971.47;;;19.81;76.87
42001;BME280;27689;48.390;10.856;2023-06-10T21:21:33;95970.66;;;19.80;77.26
42001;BME280;27689;48.390;10.856;2023-06-10T21:24:18;95966.41;;;19.73;77.61
42001;BME280;27689;48.390;10.856;2023-06-10T21:27:06;95964.97;;;19.70;77.92
42001;BME280;27689;48.390;10.856;2023-06-10T21:29:53;95974.38;;;19.73;78.26
42001;BME280;27689;48.390;10.856;2023-06-10T21:32:37;95966.81;;;19.63;78.78
42001;BME280;27689;48.390;10.856;2023-06-10T21:35:21;95969.84;;;19.47;79.43
42001;BME280;27689;48.390;10.856;2023-06-10T21:38:05;95975.38;;;19.45;80.20
42001;BME280;27689;48.390;10.856;2023-06-10T21:40:53;95984.97;;;19.46;80.06
42001;BME280;27689;48.390;10.856;2023-06-10T21:43:37;95973.97;;;19.43;79.86
42001;BME280;27689;48.390;10.856;2023-06-10T21:46:22;95976.19;;;19.39;80.17
42001;BME280;27689;48.390;10.856;2023-06-10T21:49:06;95975.78;;;19.35;80.13
42001;BME280;27689;48.390;10.856;2023-06-10T21:51:50;95982.53;;;19.31;80.95
42001;BME280;27689;48.390;10.856;2023-06-10T21:54:34;95991.31;;;19.25;81.15
42001;BME280;27689;48.390;10.856;2023-06-10T21:57:21;95988.66;;;19.25;81.15
42001;BME280;27689;48.390;10.856;2023-06-10T22:00:06;95987.03;;;19.11;81.96
42001;BME280;27689;48.390;10.856;2023-06-10T22:02:54;95987.03;;;19.11;82.39
42001;BME280;27689;48.390;10.856;2023-06-10T22:05:38;95994.19;;;19.11;82.93
42001;BME280;27689;48.390;10.856;2023-06-10T22:08:22;95989.03;;;19.02;83.46
42001;BME280;27689;48.390;10.856;2023-06-10T22:11:06;95989.44;;;18.99;83.72
42001;BME280;27689;48.390;10.856;2023-06-10T22:13:50;95986.41;;;18.96;83.65
42001;BME280;27689;48.390;10.856;2023-06-10T22:16:34;95980.47;;;18.94;83.48
42001;BME280;27689;48.390;10.856;2023-06-10T22:19:18;95972.09;;;18.84;83.93
42001;BME280;27689;48.390;10.856;2023-06-10T22:22:02;95984.53;;;18.83;83.94
42001;BME280;27689;48.390;10.856;2023-06-10T22:24:47;95985.75;;;18.81;84.38
42001;BME280;27689;48.390;10.856;2023-06-10T22:27:34;95975.09;;;18.74;83.71
42001;BME280;27689;48.390;10.856;2023-06-10T22:30:18;95977.34;;;18.71;84.68
42001;BME280;27689;48.390;10.856;2023-06-10T22:33:01;95969.38;;;18.64;84.49
42001;BME280;27689;48.390;10.856;2023-06-10T22:35:45;95977.94;;;18.59;85.87
42001;BME280;27689;48.390;10.856;2023-06-10T22:38:29;95970.31;;;18.56;85.15
42001;BME280;27689;48.390;10.856;2023-06-10T22:41:13;95971.34;;;18.55;85.00
42001;BME280;27689;48.390;10.856;2023-06-10T22:43:57;95971.78;;;18.52;85.12
42001;BME280;27689;48.390;10.856;2023-06-10T22:46:41;95973.78;;;18.50;85.10
42001;BME280;27689;48.390;10.856;2023-06-10T22:49:25;95984.19;;;18.45;85.64
42001;BME280;27689;48.390;10.856;2023-06-10T22:52:09;95978.88;;;18.45;85.25
42001;BME280;27689;48.390;10.856;2023-06-10T22:54:53;95978.63;;;18.40;85.45
42001;BME280;27689;48.390;10.856;2023-06-10T22:57:37;95969.66;;;18.41;85.63
42001;BME280;27689;48.390;10.856;2023-06-10T23:00:21;95973.13;;;18.35;85.76
42001;BME280;27689;48.390;10.856;2023-06-10T23:03:05;95979.84;;;18.31;86.43
42001;BME280;27689;48.390;10.856;2023-06-10T23:05:49;95972.28;;;18.28;86.45
42001;BME280;27689;48.390;10.856;2023-06-10T23:08:33;95978.59;;;18.27;86.48
42001;BME280;27689;48.390;10.856;2023-06-10T23:11:17;95974.91;;;18.21;86.78
42001;BME280;27689;48.390;10.856;2023-06-10T23:14:01;95978.38;;;18.22;86.81
42001;BME280;27689;48.390;10.856;2023-06-10T23:16:45;95987.94;;;18.16;87.21
42001;BME280;27689;48.390;10.856;2023-06-10T23:19:29;95992.00;;;18.12;87.34
42001;BME280;27689;48.390;10.856;2023-06-10T23:22:13;95997.72;;;18.09;88.10
42001;BME280;27689;48.390;10.856;2023-06-10T23:24:57;95995.63;;;18.05;88.31
42001;BME280;27689;48.390;10.856;2023-06-10T23:27:41;95993.56;;;18.00;89.58
42001;BME280;27689;48.390;10.856;2023-06-10T23:30:26;95995.38;;;17.93;90.07
42001;BME280;27689;48.390;10.856;2023-06-10T23:33:10;95997.19;;;17.92;89.68
42001;BME280;27689;48.390;10.856;2023-06-10T23:35:54;95998.78;;;17.87;90.55
42001;BME280;27689;48.390;10.856;2023-06-10T23:38:38;95995.69;;;17.83;90.90
42001;BME280;27689;48.390;10.856;2023-06-10T23:41:21;96000.38;;;17.81;90.61
42001;BME280;27689;48.390;10.856;2023-06-10T23:44:06;96001.56;;;17.72;91.52
42001;BME280;27689;48.390;10.856;2023-06-10T23:46:50;96003.56;;;17.70;92.01
42001;BME280;27689;48.390;10.856;2023-06-10T23:49:33;95996.22;;;17.66;93.03
42001;BME280;27689;48.390;10.856;2023-06-10T23:52:17;96003.34;;;17.65;92.62
42001;BME280;27689;48.390;10.856;2023-06-10T23:55:01;96003.06;;;17.60;92.38
42001;BME280;27689;48.390;10.856;2023-06-10T23:57:45;96002.19;;;17.53;93.26
